Time;durP1;ratioP1;P1;durP2;ratioP2;P2;SDS_P1;SDS_P2;PMS_P1;PMS_P2;Temp;Humidity;BMP_temperature;BMP_pressure;BME280_temperature;BME280_humidity;BME280_pressure;Samples;Min_cycle;Max_cycle;Signal;HPM_P1;HPM_P2
2024/01/29 00:00:56;;;;;;;4.50;2.20;;;8.90;85.00;;;;;;5075590;28;20067;-80
2024/01/29 00:03:21;;;;;;;4.55;1.90;;;8.90;85.00;;;;;;5075259;28;20029;-80
2024/01/29 00:05:47;;;;;;;5.05;2.40;;;8.90;85.10;;;;;;5076088;28;20057;-80
2024/01/29 00:08:13;;;;;;;8.65;2.55;;;8.90;85.10;;;;;;5076329;28;20032;-80
2024/01/29 00:10:38;;;;;;;4.88;2.55;;;8.90;85.00;;;;;;5075014;28;20472;-80
2024/01/29 00:13:04;;;;;;;4.78;2.20;;;8.80;85.00;;;;;;5075961;28;20423;-80
2024/01/29 00:15:32;;;;;;;5.97;2.50;;;8.90;85.20;;;;;;5076049;28;20107;-80
2024/01/29 00:17:58;;;;;;;4.57;2.30;;;8.80;85.10;;;;;;5058423;28;20028;-80
2024/01/29 00:20:23;;;;;;;5.38;3.13;;;8.90;85.20;;;;;;5075736;28;20041;-79
2024/01/29 00:22:49;;;;;;;5.53;3.50;;;8.90;85.00;;;;;;5074173;28;20110;-79
2024/01/29 00:25:14;;;;;;;3.75;2.22;;;8.90;85.00;;;;;;5076068;28;20033;-77
2024/01/29 00:27:40;;;;;;;5.20;2.40;;;8.90;85.00;;;;;;5074414;28;20040;-78
2024/01/29 00:30:07;;;;;;;5.85;2.30;;;8.90;85.00;;;;;;5074594;28;20492;-79
2024/01/29 00:32:33;;;;;;;5.60;2.63;;;8.90;85.10;;;;;;5058716;28;20071;-79
2024/01/29 00:34:59;;;;;;;6.28;2.60;;;8.90;84.90;;;;;;5075879;28;20060;-81
2024/01/29 00:37:26;;;;;;;6.47;2.83;;;8.90;84.80;;;;;;5075776;28;20111;-80
2024/01/29 00:39:52;;;;;;;7.75;3.13;;;8.90;84.80;;;;;;5074074;28;20041;-80
2024/01/29 00:42:18;;;;;;;3.83;2.58;;;8.90;84.80;;;;;;5074800;28;20025;-80
2024/01/29 00:44:44;;;;;;;6.40;2.45;;;8.90;85.00;;;;;;5074404;28;20135;-80
2024/01/29 00:47:10;;;;;;;5.00;2.55;;;8.80;85.00;;;;;;5073836;28;20033;-80
2024/01/29 00:49:37;;;;;;;5.63;2.78;;;8.80;85.00;;;;;;5075413;28;20040;-80
2024/01/29 00:52:04;;;;;;;5.95;2.35;;;8.90;85.10;;;;;;5075422;28;20124;-80
2024/01/29 00:54:30;;;;;;;4.40;2.40;;;8.90;85.00;;;;;;5075437;28;20033;-80
2024/01/29 00:56:56;;;;;;;4.95;2.58;;;8.90;85.00;;;;;;5075085;28;20048;-81
2024/01/29 00:59:22;;;;;;;5.13;2.60;;;8.90;85.00;;;;;;5056687;28;20119;-77
2024/01/29 01:01:47;;;;;;;3.28;2.28;;;8.90;85.00;;;;;;5073968;28;20171;-80
2024/01/29 01:04:14;;;;;;;5.78;2.65;;;8.80;84.90;;;;;;5073777;28;20035;-80
2024/01/29 01:06:39;;;;;;;4.68;2.50;;;8.80;85.00;;;;;;5057145;28;20060;-79
2024/01/29 01:09:05;;;;;;;4.60;2.47;;;8.80;84.90;;;;;;5073510;28;20086;-79
2024/01/29 01:11:31;;;;;;;6.28;2.40;;;8.80;85.00;;;;;;5073652;28;20086;-80
2024/01/29 01:13:56;;;;;;;6.43;2.55;;;8.90;85.00;;;;;;5075079;28;20029;-80
2024/01/29 01:16:22;;;;;;;7.63;3.05;;;8.90;85.00;;;;;;5073562;28;20020;-80
2024/01/29 01:18:47;;;;;;;5.47;2.72;;;8.80;85.00;;;;;;5073916;28;20036;-79
2024/01/29 01:21:13;;;;;;;6.25;2.80;;;8.90;85.20;;;;;;5074746;28;20126;-80
2024/01/29 01:23:39;;;;;;;6.90;3.33;;;8.80;85.10;;;;;;5073637;28;20056;-79
2024/01/29 01:26:05;;;;;;;4.05;2.22;;;8.80;85.10;;;;;;5057625;28;20489;-80
2024/01/29 01:28:31;;;;;;;4.90;2.50;;;8.80;85.20;;;;;;5073356;28;20089;-80
2024/01/29 01:30:56;;;;;;;5.43;2.53;;;8.80;85.30;;;;;;5073340;28;20107;-79
2024/01/29 01:33:22;;;;;;;6.05;2.60;;;8.80;85.50;;;;;;5073525;28;20472;-80
2024/01/29 01:35:48;;;;;;;5.35;2.75;;;8.80;85.60;;;;;;5074611;28;20033;-79
2024/01/29 01:38:13;;;;;;;5.75;2.50;;;8.70;85.50;;;;;;5073086;28;20499;-79
2024/01/29 01:40:39;;;;;;;5.53;2.85;;;8.80;85.60;;;;;;5074328;28;20111;-79
2024/01/29 01:43:21;;;;;;;5.72;2.60;;;8.70;86.10;;;;;;5073361;28;20449;-79
2024/01/29 01:46:20;;;;;;;5.43;2.50;;;8.70;85.70;;;;;;5074236;28;20016;-80
2024/01/29 01:48:46;;;;;;;5.03;2.63;;;8.80;85.70;;;;;;5073993;28;20461;-79
2024/01/29 01:51:12;;;;;;;4.60;2.60;;;8.80;85.70;;;;;;5073869;28;20036;-80
2024/01/29 01:53:38;;;;;;;6.32;3.05;;;8.70;85.60;;;;;;5074058;28;20028;-79
2024/01/29 01:56:05;;;;;;;5.07;2.50;;;8.80;85.80;;;;;;5072704;28;20029;-80
2024/01/29 01:58:32;;;;;;;4.80;2.53;;;8.70;85.80;;;;;;5073469;28;20418;-80
2024/01/29 02:00:58;;;;;;;5.03;2.40;;;8.70;85.80;;;;;;5073517;28;20412;-80
2024/01/29 02:03:28;;;;;;;4.88;2.70;;;8.80;85.90;;;;;;5072902;28;20437;-80
2024/01/29 02:05:54;;;;;;;7.32;3.55;;;8.80;85.80;;;;;;5074201;28;20025;-79
2024/01/29 02:08:21;;;;;;;7.47;2.90;;;8.80;85.90;;;;;;5073274;28;20522;-79
2024/01/29 02:10:48;;;;;;;9.45;3.60;;;8.80;86.00;;;;;;5072446;28;20120;-79
2024/01/29 02:13:14;;;;;;;4.55;2.92;;;8.80;86.00;;;;;;5072842;28;20104;-79
2024/01/29 02:15:39;;;;;;;6.25;3.33;;;8.80;86.10;;;;;;5073746;28;20433;-78
2024/01/29 02:18:05;;;;;;;5.43;2.95;;;8.80;86.20;;;;;;5072666;28;20033;-78
2024/01/29 02:20:31;;;;;;;5.45;3.20;;;8.80;86.20;;;;;;5039431;28;20071;-80
2024/01/29 02:22:57;;;;;;;6.72;3.13;;;8.80;86.20;;;;;;5073695;28;20186;-80
2024/01/29 02:25:23;;;;;;;5.72;2.70;;;8.90;86.20;;;;;;5072535;28;20500;-80
2024/01/29 02:27:49;;;;;;;4.55;2.88;;;8.90;86.20;;;;;;5073143;28;20036;-80
2024/01/29 02:30:14;;;;;;;3.72;2.55;;;8.90;86.20;;;;;;5072473;28;20507;-80
2024/01/29 02:32:41;;;;;;;4.93;2.80;;;8.90;86.20;;;;;;5072676;28;20477;-79
2024/01/29 02:35:07;;;;;;;5.65;3.20;;;8.90;86.20;;;;;;5073744;28;20031;-80
2024/01/29 02:37:34;;;;;;;5.35;3.10;;;9.00;86.20;;;;;;5072112;28;20115;-80
2024/01/29 02:40:00;;;;;;;4.05;2.70;;;9.00;86.20;;;;;;5073431;28;20087;-80
2024/01/29 02:42:26;;;;;;;7.05;3.00;;;9.00;86.20;;;;;;5056157;28;20461;-80
2024/01/29 02:44:51;;;;;;;6.25;3.50;;;9.00;86.20;;;;;;5072375;28;20381;-80
2024/01/29 02:47:17;;;;;;;4.93;2.90;;;8.90;86.20;;;;;;5073280;28;20443;-80
2024/01/29 02:49:43;;;;;;;6.35;3.03;;;8.90;86.20;;;;;;5072972;28;20138;-80
2024/01/29 02:52:10;;;;;;;6.38;3.03;;;8.90;86.20;;;;;;5072862;28;20477;-79
2024/01/29 02:54:36;;;;;;;8.60;2.95;;;8.90;86.40;;;;;;5073515;28;20035;-80
2024/01/29 02:57:02;;;;;;;7.03;2.92;;;8.90;86.40;;;;;;5072929;28;20037;-80
2024/01/29 02:59:27;;;;;;;5.28;2.70;;;8.90;86.40;;;;;;5072933;28;20116;-80
2024/01/29 03:01:57;;;;;;;6.60;3.30;;;8.90;86.50;;;;;;5073286;28;20107;-80
2024/01/29 03:04:23;;;;;;;5.20;2.88;;;8.90;86.60;;;;;;5055881;28;20059;-79
2024/01/29 03:06:48;;;;;;;6.15;3.30;;;8.90;86.70;;;;;;5055065;28;20064;-80
2024/01/29 03:09:14;;;;;;;4.25;2.72;;;8.80;86.80;;;;;;5072093;28;20075;-79
2024/01/29 03:11:41;;;;;;;6.57;2.80;;;8.70;86.90;;;;;;5071956;28;20032;-79
2024/01/29 03:14:07;;;;;;;6.25;3.00;;;8.70;86.90;;;;;;5072968;28;20033;-80
2024/01/29 03:16:32;;;;;;;5.32;3.10;;;8.70;87.00;;;;;;5072925;28;20051;-79
2024/01/29 03:18:58;;;;;;;5.28;2.97;;;8.80;87.10;;;;;;5054992;28;20129;-80
2024/01/29 03:21:26;;;;;;;5.53;3.00;;;8.80;87.10;;;;;;5071685;28;20109;-80
2024/01/29 03:23:51;;;;;;;5.55;3.10;;;8.70;87.30;;;;;;5072822;28;20075;-79
2024/01/29 03:26:17;;;;;;;5.68;2.90;;;8.60;87.60;;;;;;5075805;28;20059;-80
2024/01/29 03:28:42;;;;;;;7.07;3.28;;;8.50;87.80;;;;;;5076713;28;20487;-80
2024/01/29 03:31:08;;;;;;;5.72;3.45;;;8.60;87.90;;;;;;5058876;28;20502;-80
2024/01/29 03:33:34;;;;;;;4.85;2.67;;;8.50;88.00;;;;;;5075518;28;20035;-80
2024/01/29 03:36:06;;;;;;;7.18;2.78;;;8.40;88.20;;;;;;5076559;28;20039;-80
2024/01/29 03:38:32;;;;;;;5.50;2.58;;;8.50;88.40;;;;;;5075841;28;20028;-79
2024/01/29 03:40:58;;;;;;;6.03;2.85;;;8.50;88.30;;;;;;5075297;28;20123;-80
2024/01/29 03:43:25;;;;;;;6.18;2.67;;;8.50;88.20;;;;;;5076856;28;20028;-79
2024/01/29 03:45:52;;;;;;;4.72;2.75;;;8.50;88.20;;;;;;5075587;28;20051;-80
2024/01/29 03:48:18;;;;;;;5.85;2.90;;;8.50;88.10;;;;;;5077005;28;20037;-80
2024/01/29 03:50:44;;;;;;;4.82;3.13;;;8.60;88.10;;;;;;5075696;28;20036;-80
2024/01/29 03:53:09;;;;;;;6.20;2.53;;;8.60;88.10;;;;;;5076965;28;20044;-79
2024/01/29 03:55:35;;;;;;;6.32;2.40;;;8.60;88.10;;;;;;5074720;28;20054;-79
2024/01/29 03:58:01;;;;;;;5.35;2.90;;;8.70;88.20;;;;;;5076216;28;20036;-79
2024/01/29 04:00:27;;;;;;;5.10;2.78;;;8.70;88.10;;;;;;5075185;28;20043;-80
2024/01/29 04:02:53;;;;;;;6.22;2.90;;;8.70;88.10;;;;;;5074894;28;20123;-80
2024/01/29 04:05:18;;;;;;;6.43;3.40;;;8.70;88.10;;;;;;5076597;28;20033;-80
2024/01/29 04:07:48;;;;;;;5.25;3.10;;;8.80;88.10;;;;;;5074995;28;20074;-79
2024/01/29 04:10:15;;;;;;;7.20;2.80;;;8.80;88.10;;;;;;5076111;28;20039;-80
2024/01/29 04:12:41;;;;;;;5.35;2.58;;;8.80;88.10;;;;;;5076531;28;20040;-80
2024/01/29 04:15:07;;;;;;;5.05;2.42;;;8.80;88.10;;;;;;5075006;28;20123;-80
2024/01/29 04:17:32;;;;;;;6.38;2.75;;;8.90;88.10;;;;;;5074966;28;20035;-80
2024/01/29 04:19:59;;;;;;;6.80;3.10;;;8.80;88.10;;;;;;5075219;28;20386;-80
2024/01/29 04:22:25;;;;;;;4.55;2.78;;;8.80;88.00;;;;;;5074696;28;20033;-80
2024/01/29 04:24:51;;;;;;;4.43;2.80;;;8.90;88.10;;;;;;5075341;28;20377;-79
2024/01/29 04:27:17;;;;;;;5.03;3.03;;;8.90;88.10;;;;;;5057982;28;20056;-79
2024/01/29 04:29:44;;;;;;;5.72;2.90;;;8.90;88.10;;;;;;5075046;28;20457;-80
2024/01/29 04:32:09;;;;;;;6.88;3.35;;;8.80;88.10;;;;;;5076024;28;20029;-79
2024/01/29 04:34:35;;;;;;;5.05;2.80;;;8.80;88.10;;;;;;5074663;28;20462;-80
2024/01/29 04:37:01;;;;;;;5.10;2.70;;;8.90;88.20;;;;;;5057017;28;20036;-80
2024/01/29 04:39:27;;;;;;;8.63;3.60;;;8.90;88.20;;;;;;5057741;28;20032;-80
2024/01/29 04:41:52;;;;;;;4.93;2.85;;;8.80;88.20;;;;;;5074457;28;20037;-80
2024/01/29 04:44:18;;;;;;;5.18;2.92;;;8.80;88.30;;;;;;5041793;28;20029;-80
2024/01/29 04:46:44;;;;;;;6.90;3.40;;;8.80;88.40;;;;;;5057728;28;20036;-80
2024/01/29 04:49:10;;;;;;;7.57;2.90;;;8.80;88.40;;;;;;5075245;28;20548;-79
2024/01/29 04:51:36;;;;;;;6.28;3.55;;;8.80;88.50;;;;;;5075312;28;20052;-80
2024/01/29 04:54:02;;;;;;;4.40;2.90;;;8.80;88.50;;;;;;5074110;28;20427;-80
2024/01/29 04:56:28;;;;;;;6.68;3.13;;;8.80;88.60;;;;;;5073920;28;20035;-80
2024/01/29 04:58:53;;;;;;;4.95;3.05;;;8.80;88.70;;;;;;5056834;28;20025;-80
2024/01/29 05:01:19;;;;;;;4.85;3.33;;;8.80;88.80;;;;;;5073497;28;20041;-80
2024/01/29 05:03:45;;;;;;;5.10;3.05;;;8.80;88.80;;;;;;5074770;28;20024;-79
2024/01/29 05:06:11;;;;;;;5.63;2.88;;;8.80;88.90;;;;;;5073846;28;20051;-80
2024/01/29 05:08:37;;;;;;;5.55;2.90;;;8.80;88.90;;;;;;5074528;28;20025;-80
2024/01/29 05:11:02;;;;;;;3.92;3.10;;;8.80;89.00;;;;;;5074762;28;20334;-79
2024/01/29 05:13:28;;;;;;;5.25;2.80;;;8.80;89.00;;;;;;5074796;28;20373;-79
2024/01/29 05:15:54;;;;;;;5.93;3.08;;;8.80;89.10;;;;;;5075418;28;20031;-80
2024/01/29 05:18:20;;;;;;;5.63;3.17;;;8.80;89.10;;;;;;5074837;28;20032;-80
2024/01/29 05:20:46;;;;;;;4.35;2.80;;;8.80;89.10;;;;;;5073610;28;20104;-80
2024/01/29 05:23:12;;;;;;;5.82;3.53;;;8.70;89.10;;;;;;5074464;28;20084;-80
2024/01/29 05:25:38;;;;;;;5.70;3.25;;;8.70;89.20;;;;;;5056813;28;20032;-79
2024/01/29 05:28:04;;;;;;;5.10;3.05;;;8.80;89.30;;;;;;5074936;28;20040;-79
2024/01/29 05:30:29;;;;;;;7.13;3.67;;;8.80;89.30;;;;;;5073391;28;20042;-80
2024/01/29 05:32:55;;;;;;;6.45;3.53;;;8.70;89.30;;;;;;5074724;28;20540;-80
2024/01/29 05:35:21;;;;;;;6.78;3.80;;;8.70;89.40;;;;;;5073296;28;20029;-80
2024/01/29 05:37:46;;;;;;;9.52;3.40;;;8.70;89.50;;;;;;5073128;28;20052;-80
2024/01/29 05:40:12;;;;;;;7.47;3.60;;;8.70;89.60;;;;;;5073060;28;20378;-80
2024/01/29 05:42:38;;;;;;;5.97;3.33;;;8.70;89.70;;;;;;5074025;28;20473;-80
2024/01/29 05:45:05;;;;;;;6.30;3.30;;;8.60;89.70;;;;;;5074246;28;20039;-80
2024/01/29 05:47:30;;;;;;;6.30;3.50;;;8.60;89.80;;;;;;5073771;28;20051;-80
2024/01/29 05:49:56;;;;;;;4.68;3.25;;;8.60;90.00;;;;;;5074677;28;20457;-79
2024/01/29 05:52:22;;;;;;;6.38;3.50;;;8.60;90.00;;;;;;5074090;28;20029;-79
2024/01/29 05:54:47;;;;;;;5.72;3.40;;;8.60;90.10;;;;;;5072826;28;20032;-79
2024/01/29 05:57:14;;;;;;;7.75;3.65;;;8.50;90.10;;;;;;5073247;28;20488;-79
2024/01/29 05:59:40;;;;;;;5.75;3.35;;;8.50;90.10;;;;;;5073863;28;20079;-79
2024/01/29 06:02:06;;;;;;;6.35;3.72;;;8.60;90.20;;;;;;5072650;28;20036;-79
2024/01/29 06:04:32;;;;;;;6.38;4.07;;;8.60;90.20;;;;;;5074186;28;20033;-79
2024/01/29 06:06:59;;;;;;;6.80;3.83;;;8.50;90.10;;;;;;5074104;28;20102;-78
2024/01/29 06:09:24;;;;;;;5.35;3.80;;;8.50;90.20;;;;;;5055662;28;20052;-79
2024/01/29 06:11:50;;;;;;;6.78;3.67;;;8.50;90.20;;;;;;5072312;28;20131;-79
2024/01/29 06:14:16;;;;;;;7.22;4.03;;;8.50;90.30;;;;;;5072184;28;20067;-79
2024/01/29 06:16:45;;;;;;;8.55;3.30;;;8.50;90.30;;;;;;5072088;28;20043;-78
2024/01/29 06:19:15;;;;;;;6.03;3.60;;;8.50;90.30;;;;;;5073105;28;20082;-79
2024/01/29 06:21:42;;;;;;;6.30;3.58;;;8.50;90.40;;;;;;5072046;28;20041;-78
2024/01/29 06:24:08;;;;;;;5.70;3.38;;;8.50;90.40;;;;;;5071828;28;20051;-78
2024/01/29 06:26:35;;;;;;;8.50;3.85;;;8.50;90.40;;;;;;5055265;28;20458;-80
2024/01/29 06:29:00;;;;;;;7.40;3.97;;;8.50;90.50;;;;;;5072008;28;20400;-80
2024/01/29 06:31:26;;;;;;;7.13;3.90;;;8.50;90.60;;;;;;5073433;28;20025;-79
2024/01/29 06:33:55;;;;;;;6.20;3.67;;;8.50;90.60;;;;;;5073883;28;20403;-80
2024/01/29 06:36:21;;;;;;;6.30;3.70;;;8.40;90.70;;;;;;5073807;28;20040;-80
2024/01/29 06:38:46;;;;;;;3.95;3.17;;;8.40;90.70;;;;;;5072208;28;20522;-80
2024/01/29 06:41:22;;;;;;;6.85;3.85;;;8.40;90.70;;;;;;5073560;28;20534;-79
2024/01/29 06:43:53;;;;;;;6.28;3.50;;;8.50;90.80;;;;;;5055261;28;20025;-79
2024/01/29 06:46:19;;;;;;;8.63;3.83;;;8.50;90.70;;;;;;5072220;28;20432;-80
2024/01/29 06:48:45;;;;;;;8.57;4.10;;;8.50;90.80;;;;;;5073251;28;20040;-80
2024/01/29 06:51:11;;;;;;;6.57;3.70;;;8.50;90.80;;;;;;5055290;28;20041;-80
2024/01/29 06:53:37;;;;;;;8.27;3.90;;;8.50;90.80;;;;;;5073360;28;20052;-80
2024/01/29 06:56:04;;;;;;;7.15;3.90;;;8.50;90.80;;;;;;5073402;28;20024;-80
2024/01/29 06:58:37;;;;;;;6.13;3.67;;;8.50;90.80;;;;;;5073534;28;20041;-80
2024/01/29 07:01:03;;;;;;;6.93;3.20;;;8.50;90.80;;;;;;5076728;28;20119;-80
2024/01/29 07:03:29;;;;;;;7.05;2.97;;;8.60;92.00;;;;;;5076415;28;20152;-80
2024/01/29 07:05:55;;;;;;;11.38;4.43;;;8.70;92.60;;;;;;5059546;28;20036;-81
2024/01/29 07:08:21;;;;;;;9.93;3.08;;;8.70;92.80;;;;;;5077748;28;20056;-80
2024/01/29 07:10:47;;;;;;;7.32;3.25;;;8.70;92.80;;;;;;5077465;28;20449;-80
2024/01/29 07:13:12;;;;;;;6.20;3.30;;;8.80;93.70;;;;;;5076152;28;20522;-80
2024/01/29 07:15:40;;;;;;;10.30;3.60;;;8.90;93.70;;;;;;5077017;28;20033;-78
2024/01/29 07:18:05;;;;;;;6.18;3.20;;;8.90;94.20;;;;;;5076963;28;20056;-79
2024/01/29 07:20:38;;;;;;;5.45;3.40;;;9.00;94.40;;;;;;5077127;28;20488;-80
2024/01/29 07:23:08;;;;;;;5.72;3.17;;;9.10;94.40;;;;;;5076373;28;20065;-80
2024/01/29 07:25:40;;;;;;;7.38;3.65;;;9.00;93.80;;;;;;5077617;28;20028;-81
2024/01/29 07:28:06;;;;;;;7.60;3.20;;;9.10;94.00;;;;;;5077485;28;20048;-80
2024/01/29 07:30:32;;;;;;;6.20;3.15;;;9.10;94.20;;;;;;5076164;28;20079;-77
2024/01/29 07:32:59;;;;;;;6.85;3.67;;;9.20;94.30;;;;;;5077445;28;20032;-79
2024/01/29 07:35:25;;;;;;;4.72;2.80;;;9.20;94.20;;;;;;5076895;28;20048;-80
2024/01/29 07:37:52;;;;;;;6.28;3.80;;;9.20;93.90;;;;;;5076733;28;20056;-79
2024/01/29 07:40:19;;;;;;;7.28;3.80;;;9.20;93.50;;;;;;5076830;28;20078;-78
2024/01/29 07:42:45;;;;;;;5.72;3.00;;;9.10;93.80;;;;;;5076249;28;20028;-79
2024/01/29 07:45:11;;;;;;;7.20;3.33;;;9.20;93.90;;;;;;5075598;28;20036;-78
2024/01/29 07:47:37;;;;;;;4.68;3.03;;;9.30;93.80;;;;;;5076419;28;20098;-78
2024/01/29 07:50:03;;;;;;;5.82;3.35;;;9.30;93.70;;;;;;5076396;28;20024;-79
2024/01/29 07:52:29;;;;;;;6.90;3.35;;;9.30;93.50;;;;;;5075969;28;20115;-78
2024/01/29 07:54:55;;;;;;;7.97;3.17;;;9.30;93.50;;;;;;5076395;28;20071;-78
2024/01/29 07:57:21;;;;;;;4.50;2.95;;;9.30;93.50;;;;;;5076552;28;20461;-79
2024/01/29 07:59:46;;;;;;;5.22;3.47;;;9.40;93.60;;;;;;5075904;28;20445;-81
2024/01/29 08:02:12;;;;;;;6.03;3.78;;;9.40;93.60;;;;;;5076332;28;20107;-80
2024/01/29 08:04:38;;;;;;;7.38;3.88;;;9.40;93.40;;;;;;5075659;28;20025;-80
2024/01/29 08:07:04;;;;;;;5.75;3.55;;;9.40;93.30;;;;;;5076509;28;20025;-81
2024/01/29 08:09:29;;;;;;;5.32;2.95;;;9.40;93.20;;;;;;5076551;28;20477;-81
2024/01/29 08:11:55;;;;;;;5.68;4.00;;;9.50;93.30;;;;;;5075199;28;20036;-80
2024/01/29 08:14:21;;;;;;;5.43;3.70;;;9.50;93.10;;;;;;5077235;28;20040;-80
2024/01/29 08:16:47;;;;;;;8.13;3.90;;;9.60;93.00;;;;;;5076822;28;20030;-80
2024/01/29 08:19:13;;;;;;;10.00;4.13;;;9.50;92.70;;;;;;5076892;28;20086;-79
2024/01/29 08:21:38;;;;;;;7.43;3.80;;;9.50;92.60;;;;;;5075094;28;20481;-79
2024/01/29 08:24:05;;;;;;;4.70;3.63;;;9.50;92.30;;;;;;5076126;28;20166;-82
2024/01/29 08:26:31;;;;;;;8.80;3.83;;;9.50;92.40;;;;;;5077040;28;20086;-81
2024/01/29 08:28:58;;;;;;;5.82;4.00;;;9.50;92.40;;;;;;5075435;28;20025;-79
2024/01/29 08:31:26;;;;;;;6.68;3.70;;;9.50;92.40;;;;;;5077768;28;20043;-81
2024/01/29 08:33:52;;;;;;;5.78;3.65;;;9.50;92.30;;;;;;5044321;28;20060;-80
2024/01/29 08:36:20;;;;;;;7.18;3.90;;;9.50;92.40;;;;;;5075495;28;20020;-80
2024/01/29 08:38:47;;;;;;;7.03;4.10;;;9.40;92.20;;;;;;5077104;28;20029;-80
2024/01/29 08:41:13;;;;;;;6.82;3.85;;;9.40;92.30;;;;;;5075134;28;20032;-81
2024/01/29 08:43:39;;;;;;;5.80;3.97;;;9.40;92.40;;;;;;5076681;28;20069;-81
2024/01/29 08:46:05;;;;;;;7.10;4.18;;;9.40;92.40;;;;;;5076443;28;20039;-80
2024/01/29 08:48:32;;;;;;;6.10;3.83;;;9.30;92.40;;;;;;5076102;28;20040;-81
2024/01/29 08:50:58;;;;;;;8.85;4.70;;;9.30;92.50;;;;;;5075827;28;20068;-81
2024/01/29 08:53:25;;;;;;;6.30;4.28;;;9.30;92.60;;;;;;5075406;28;20033;-80
2024/01/29 08:55:50;;;;;;;5.13;4.03;;;9.20;92.70;;;;;;5075934;28;20029;-80
2024/01/29 08:58:16;;;;;;;9.55;4.63;;;9.20;92.80;;;;;;5074406;28;20385;-79
2024/01/29 09:00:42;;;;;;;7.15;4.13;;;9.20;92.90;;;;;;5074503;28;20464;-80
2024/01/29 09:03:09;;;;;;;6.72;4.22;;;9.30;93.10;;;;;;5073937;28;20082;-79
2024/01/29 09:05:36;;;;;;;6.60;4.45;;;9.40;93.10;;;;;;5075551;28;20021;-81
2024/01/29 09:08:02;;;;;;;7.18;4.28;;;9.40;93.00;;;;;;5075614;28;20032;-79
2024/01/29 09:10:27;;;;;;;9.20;4.50;;;9.40;92.90;;;;;;5075153;28;20480;-80
2024/01/29 09:12:53;;;;;;;5.18;3.95;;;9.40;92.90;;;;;;5075171;28;20060;-81
2024/01/29 09:15:19;;;;;;;5.30;4.03;;;9.50;93.00;;;;;;5075281;28;20089;-80
2024/01/29 09:17:44;;;;;;;8.98;4.70;;;9.50;93.00;;;;;;5075520;28;20457;-80
2024/01/29 09:20:12;;;;;;;8.00;4.57;;;9.50;93.00;;;;;;5074697;28;20037;-79
2024/01/29 09:22:38;;;;;;;5.53;4.43;;;9.50;93.00;;;;;;5074871;28;20028;-79
2024/01/29 09:25:06;;;;;;;7.55;4.65;;;9.50;93.10;;;;;;5073791;28;20130;-80
2024/01/29 09:27:32;;;;;;;6.93;4.55;;;9.60;93.10;;;;;;5075049;28;20028;-79
2024/01/29 09:29:58;;;;;;;5.82;4.25;;;9.60;93.10;;;;;;5073740;28;20047;-78
2024/01/29 09:32:23;;;;;;;6.38;4.20;;;9.60;93.10;;;;;;5074064;28;20461;-76
2024/01/29 09:34:49;;;;;;;6.30;4.13;;;9.70;93.10;;;;;;5074739;28;20032;-76
2024/01/29 09:37:18;;;;;;;10.32;4.80;;;9.70;93.30;;;;;;5074321;28;20021;-76
2024/01/29 09:39:43;;;;;;;8.43;4.38;;;9.80;93.40;;;;;;5074802;28;20032;-80
2024/01/29 09:42:12;;;;;;;7.80;4.13;;;9.80;93.50;;;;;;5075898;28;20050;-79
2024/01/29 09:44:39;;;;;;;7.30;4.25;;;9.80;93.60;;;;;;5077281;28;20081;-75
2024/01/29 09:47:06;;;;;;;7.18;4.60;;;9.90;93.70;;;;;;5081060;28;20036;-75
2024/01/29 09:49:35;;;;;;;7.10;4.43;;;10.00;93.50;;;;;;5079096;28;20028;-78
2024/01/29 09:52:04;;;;;;;8.18;4.50;;;10.10;93.40;;;;;;5074090;28;20032;-78
2024/01/29 09:54:33;;;;;;;7.63;4.75;;;10.10;93.30;;;;;;5074397;28;20040;-80
2024/01/29 09:56:59;;;;;;;8.77;4.40;;;10.10;93.30;;;;;;5073403;28;20082;-77
2024/01/29 09:59:25;;;;;;;8.25;5.43;;;10.20;93.30;;;;;;5072748;28;20032;-80
2024/01/29 10:01:51;;;;;;;7.45;4.85;;;10.20;93.20;;;;;;5074594;28;20108;-79
2024/01/29 10:04:18;;;;;;;7.85;5.03;;;10.20;93.20;;;;;;5074381;28;20028;-73
2024/01/29 10:06:43;;;;;;;7.97;4.72;;;10.20;93.10;;;;;;5074059;28;20059;-80
2024/01/29 10:09:10;;;;;;;8.98;4.93;;;10.20;93.10;;;;;;5073124;28;20412;-80
2024/01/29 10:11:39;;;;;;;7.47;4.18;;;10.20;93.00;;;;;;5072806;28;20131;-78
2024/01/29 10:14:06;;;;;;;7.78;4.97;;;10.20;93.00;;;;;;5073893;28;20497;-80
2024/01/29 10:16:32;;;;;;;8.73;5.03;;;10.30;93.10;;;;;;5074396;28;20036;-81
2024/01/29 10:19:02;;;;;;;5.72;4.47;;;10.30;93.00;;;;;;5073685;28;20098;-81
2024/01/29 10:21:32;;;;;;;8.45;5.20;;;10.30;92.90;;;;;;5072311;28;20105;-82
2024/01/29 10:23:58;;;;;;;8.20;4.85;;;10.30;92.90;;;;;;5072160;28;20052;-82
2024/01/29 10:26:25;;;;;;;6.90;5.20;;;10.30;93.00;;;;;;5072241;28;20037;-81
2024/01/29 10:29:02;;;;;;;9.07;5.55;;;10.30;93.00;;;;;;5073580;28;20036;-82
2024/01/29 10:31:28;;;;;;;9.65;5.47;;;10.20;92.90;;;;;;5072140;28;20036;-81
2024/01/29 10:33:54;;;;;;;8.00;5.65;;;10.10;93.20;;;;;;5071763;28;20033;-81
2024/01/29 10:36:21;;;;;;;9.45;5.65;;;10.10;93.30;;;;;;5071544;28;20036;-80
2024/01/29 10:38:47;;;;;;;9.05;5.78;;;10.10;93.30;;;;;;5073056;28;20496;-82
2024/01/29 10:41:17;;;;;;;7.13;5.50;;;10.10;93.30;;;;;;5072925;28;20380;-81
2024/01/29 10:43:47;;;;;;;8.82;5.88;;;10.10;93.50;;;;;;5073282;28;20021;-82
2024/01/29 10:46:19;;;;;;;10.90;5.88;;;10.20;93.60;;;;;;5072795;28;20048;-80
2024/01/29 10:48:45;;;;;;;10.70;6.30;;;10.20;93.60;;;;;;5073687;28;20021;-82
2024/01/29 10:51:13;;;;;;;9.25;5.80;;;10.30;93.60;;;;;;5073889;28;20032;-81
2024/01/29 10:53:41;;;;;;;8.15;5.60;;;10.30;93.70;;;;;;5072301;28;20044;-82
2024/01/29 10:56:07;;;;;;;11.00;5.68;;;10.40;93.50;;;;;;5073504;28;20021;-82
2024/01/29 10:58:34;;;;;;;8.73;5.60;;;10.40;93.60;;;;;;5072259;28;20373;-82
2024/01/29 11:01:00;;;;;;;11.57;6.38;;;10.50;93.70;;;;;;5072641;28;20063;-82
2024/01/29 11:03:26;;;;;;;9.27;5.90;;;10.70;93.60;;;;;;5074006;28;20036;-82
2024/01/29 11:06:19;;;;;;;9.85;5.13;;;10.70;93.70;;;;;;5073138;28;20465;-80
2024/01/29 11:08:50;;;;;;;8.25;5.75;;;10.90;93.60;;;;;;5073121;28;20060;-81
2024/01/29 11:11:17;;;;;;;8.52;5.82;;;11.00;93.30;;;;;;5072732;28;20120;-82
2024/01/29 11:13:43;;;;;;;8.25;5.57;;;11.00;93.20;;;;;;5055311;28;20365;-84
2024/01/29 11:16:09;;;;;;;8.93;6.00;;;11.10;93.20;;;;;;5072368;28;20035;-81
2024/01/29 11:18:35;;;;;;;7.93;5.63;;;11.20;93.20;;;;;;5072591;28;20037;-81
2024/01/29 11:21:01;;;;;;;7.93;5.65;;;11.30;93.30;;;;;;5072719;28;20457;-81
2024/01/29 11:23:30;;;;;;;6.72;5.40;;;11.40;93.20;;;;;;5071854;28;20102;-82
2024/01/29 11:26:00;;;;;;;6.70;5.30;;;11.50;93.30;;;;;;5055772;28;20429;-81
2024/01/29 11:28:27;;;;;;;9.38;5.95;;;11.60;93.20;;;;;;5054898;28;20025;-81
2024/01/29 11:30:53;;;;;;;9.70;6.15;;;11.60;93.10;;;;;;5054722;28;20119;-81
2024/01/29 11:33:20;;;;;;;9.30;6.20;;;11.70;93.10;;;;;;5072921;28;20368;-80
2024/01/29 11:35:46;;;;;;;10.32;6.10;;;11.80;93.10;;;;;;5072856;28;20111;-79
2024/01/29 11:38:15;;;;;;;11.73;6.07;;;11.80;93.00;;;;;;5072948;28;20112;-81
2024/01/29 11:40:43;;;;;;;9.32;6.55;;;11.80;93.10;;;;;;5071318;28;20039;-80
2024/01/29 11:43:11;;;;;;;9.35;6.45;;;11.90;93.10;;;;;;5072205;28;20029;-81
2024/01/29 11:45:37;;;;;;;7.22;5.40;;;12.00;93.00;;;;;;5072170;28;20133;-81
2024/01/29 11:48:11;;;;;;;8.13;5.72;;;12.10;93.00;;;;;;5076242;28;20036;-79
2024/01/29 11:50:41;;;;;;;13.43;6.53;;;12.10;92.80;;;;;;5076123;28;20060;-80
2024/01/29 11:53:14;;;;;;;9.45;6.45;;;12.20;92.80;;;;;;5076260;28;20059;-80
2024/01/29 11:55:41;;;;;;;9.38;6.40;;;12.20;92.80;;;;;;5076214;28;20044;-80
2024/01/29 11:58:18;;;;;;;10.30;6.28;;;12.30;92.80;;;;;;5076171;28;20024;-80
2024/01/29 12:00:45;;;;;;;9.68;6.18;;;12.40;92.90;;;;;;5076484;28;20040;-80
2024/01/29 12:03:15;;;;;;;8.45;6.45;;;12.50;92.80;;;;;;5076083;28;20111;-80
2024/01/29 12:05:41;;;;;;;7.50;5.78;;;12.50;92.70;;;;;;5074843;28;20067;-81
2024/01/29 12:08:26;;;;;;;11.38;5.93;;;12.60;92.80;;;;;;5076345;28;20070;-79
2024/01/29 12:11:00;;;;;;;8.45;6.13;;;12.60;92.70;;;;;;5075686;28;20036;-80
2024/01/29 12:13:26;;;;;;;12.73;6.97;;;12.60;92.60;;;;;;5074601;28;20461;-81
2024/01/29 12:15:53;;;;;;;9.23;6.07;;;12.60;92.60;;;;;;5076102;28;20035;-79
2024/01/29 12:18:24;;;;;;;10.20;6.90;;;12.60;92.80;;;;;;5076243;28;20097;-76
2024/01/29 12:20:50;;;;;;;8.32;6.22;;;12.70;93.00;;;;;;5076385;28;20378;-81
2024/01/29 12:23:23;;;;;;;12.50;6.13;;;12.60;93.10;;;;;;5075958;28;20032;-80
2024/01/29 12:25:53;;;;;;;;;;;12.60;93.00;;;;;;5075651;28;20064;-79
2024/01/29 12:28:19;;;;;;;8.82;5.72;;;12.60;93.00;;;;;;5075704;28;19934;-81
2024/01/29 12:30:56;;;;;;;11.10;6.20;;;12.60;93.10;;;;;;5075679;28;20087;-81
2024/01/29 12:33:27;;;;;;;10.18;6.47;;;12.70;93.10;;;;;;5075802;28;20468;-81
2024/01/29 12:35:53;;;;;;;9.65;6.45;;;12.70;93.20;;;;;;5074468;28;20107;-80
2024/01/29 12:38:22;;;;;;;13.35;7.10;;;12.70;93.10;;;;;;5074343;28;20056;-81
2024/01/29 12:40:57;;;;;;;10.05;6.82;;;12.70;93.20;;;;;;5058367;28;20036;-81
2024/01/29 12:43:27;;;;;;;10.88;7.22;;;12.80;93.10;;;;;;5075643;28;20036;-81
2024/01/29 12:46:08;;;;;;;12.13;6.85;;;12.80;93.20;;;;;;5075638;28;20510;-82
2024/01/29 12:48:34;;;;;;;10.88;7.47;;;12.80;93.30;;;;;;5074553;28;20123;-81
2024/01/29 12:51:00;;;;;;;8.52;6.18;;;12.90;93.20;;;;;;5074309;28;20036;-81